sensor_id;sensor_type;location;lat;lon;timestamp;temperature;humidity
14101;DHT22;7127;49.372;8.166;2024-01-10T00:00:14;0.60;38.80
14101;DHT22;7127;49.372;8.166;2024-01-10T00:02:41;0.50;38.70
14101;DHT22;7127;49.372;8.166;2024-01-10T00:05:08;0.60;38.90
14101;DHT22;7127;49.372;8.166;2024-01-10T00:07:35;0.50;38.40
14101;DHT22;7127;49.372;8.166;2024-01-10T00:10:04;0.50;38.90
14101;DHT22;7127;49.372;8.166;2024-01-10T00:12:31;0.50;38.30
14101;DHT22;7127;49.372;8.166;2024-01-10T00:15:01;0.50;38.40
14101;DHT22;7127;49.372;8.166;2024-01-10T00:17:28;0.40;38.60
14101;DHT22;7127;49.372;8.166;2024-01-10T00:19:55;0.40;38.40
14101;DHT22;7127;49.372;8.166;2024-01-10T00:22:21;0.40;38.40
14101;DHT22;7127;49.372;8.166;2024-01-10T00:24:48;0.40;38.10
14101;DHT22;7127;49.372;8.166;2024-01-10T00:27:17;0.40;37.90
14101;DHT22;7127;49.372;8.166;2024-01-10T00:29:43;0.30;37.80
14101;DHT22;7127;49.372;8.166;2024-01-10T00:32:10;0.30;38.20
14101;DHT22;7127;49.372;8.166;2024-01-10T00:34:37;0.30;38.40
14101;DHT22;7127;49.372;8.166;2024-01-10T00:37:04;0.30;38.50
14101;DHT22;7127;49.372;8.166;2024-01-10T00:39:30;0.30;38.80
14101;DHT22;7127;49.372;8.166;2024-01-10T00:41:57;0.30;38.90
14101;DHT22;7127;49.372;8.166;2024-01-10T00:44:25;0.40;38.90
14101;DHT22;7127;49.372;8.166;2024-01-10T00:46:52;0.40;38.90
14101;DHT22;7127;49.372;8.166;2024-01-10T00:49:19;0.40;38.50
14101;DHT22;7127;49.372;8.166;2024-01-10T00:51:46;0.40;38.60
14101;DHT22;7127;49.372;8.166;2024-01-10T00:54:13;0.40;38.80
14101;DHT22;7127;49.372;8.166;2024-01-10T00:56:39;0.40;38.50
14101;DHT22;7127;49.372;8.166;2024-01-10T00:59:06;0.40;38.60
14101;DHT22;7127;49.372;8.166;2024-01-10T01:01:34;0.50;39.00
14101;DHT22;7127;49.372;8.166;2024-01-10T01:04:01;0.50;38.60
14101;DHT22;7127;49.372;8.166;2024-01-10T01:06:28;0.40;38.60
14101;DHT22;7127;49.372;8.166;2024-01-10T01:08:54;0.40;38.60
14101;DHT22;7127;49.372;8.166;2024-01-10T01:11:22;0.50;38.60
14101;DHT22;7127;49.372;8.166;2024-01-10T01:13:48;0.40;38.40
14101;DHT22;7127;49.372;8.166;2024-01-10T01:16:15;0.40;38.60
14101;DHT22;7127;49.372;8.166;2024-01-10T01:18:43;0.40;39.20
14101;DHT22;7127;49.372;8.166;2024-01-10T01:21:11;0.40;38.50
14101;DHT22;7127;49.372;8.166;2024-01-10T01:23:37;0.50;38.60
14101;DHT22;7127;49.372;8.166;2024-01-10T01:26:04;0.40;38.10
14101;DHT22;7127;49.372;8.166;2024-01-10T01:28:31;0.40;38.10
14101;DHT22;7127;49.372;8.166;2024-01-10T01:30:58;0.40;38.50
14101;DHT22;7127;49.372;8.166;2024-01-10T01:33:25;0.50;38.80
14101;DHT22;7127;49.372;8.166;2024-01-10T01:35:53;0.50;39.00
14101;DHT22;7127;49.372;8.166;2024-01-10T01:38:20;0.60;39.00
14101;DHT22;7127;49.372;8.166;2024-01-10T01:40:46;0.60;39.00
14101;DHT22;7127;49.372;8.166;2024-01-10T01:43:20;0.60;38.70
14101;DHT22;7127;49.372;8.166;2024-01-10T01:45:48;0.70;39.20
14101;DHT22;7127;49.372;8.166;2024-01-10T01:48:17;0.70;39.20
14101;DHT22;7127;49.372;8.166;2024-01-10T01:50:44;0.70;39.20
14101;DHT22;7127;49.372;8.166;2024-01-10T01:53:13;0.80;39.10
14101;DHT22;7127;49.372;8.166;2024-01-10T01:55:41;0.80;39.20
14101;DHT22;7127;49.372;8.166;2024-01-10T01:58:08;0.80;39.00
14101;DHT22;7127;49.372;8.166;2024-01-10T02:00:35;0.80;38.90
14101;DHT22;7127;49.372;8.166;2024-01-10T02:03:03;0.80;38.90
14101;DHT22;7127;49.372;8.166;2024-01-10T02:05:31;0.90;39.20
14101;DHT22;7127;49.372;8.166;2024-01-10T02:07:58;0.90;39.20
14101;DHT22;7127;49.372;8.166;2024-01-10T02:10:26;0.90;38.80
14101;DHT22;7127;49.372;8.166;2024-01-10T02:12:53;0.90;38.80
14101;DHT22;7127;49.372;8.166;2024-01-10T02:15:20;1.00;38.70
14101;DHT22;7127;49.372;8.166;2024-01-10T02:17:47;1.00;38.90
14101;DHT22;7127;49.372;8.166;2024-01-10T02:20:15;1.00;38.50
14101;DHT22;7127;49.372;8.166;2024-01-10T02:22:43;1.00;38.60
14101;DHT22;7127;49.372;8.166;2024-01-10T02:25:11;1.00;38.40
14101;DHT22;7127;49.372;8.166;2024-01-10T02:27:39;0.90;38.30
14101;DHT22;7127;49.372;8.166;2024-01-10T02:30:07;0.90;38.50
14101;DHT22;7127;49.372;8.166;2024-01-10T02:32:35;1.00;38.60
14101;DHT22;7127;49.372;8.166;2024-01-10T02:35:02;1.00;38.80
14101;DHT22;7127;49.372;8.166;2024-01-10T02:37:29;1.00;38.90
14101;DHT22;7127;49.372;8.166;2024-01-10T02:39:56;1.00;38.90
14101;DHT22;7127;49.372;8.166;2024-01-10T02:42:24;1.00;38.90
14101;DHT22;7127;49.372;8.166;2024-01-10T02:44:51;1.00;39.00
14101;DHT22;7127;49.372;8.166;2024-01-10T02:47:18;1.00;38.40
14101;DHT22;7127;49.372;8.166;2024-01-10T02:49:44;1.00;38.20
14101;DHT22;7127;49.372;8.166;2024-01-10T02:52:11;1.00;38.60
14101;DHT22;7127;49.372;8.166;2024-01-10T02:54:38;1.00;38.20
14101;DHT22;7127;49.372;8.166;2024-01-10T02:57:05;1.00;38.60
14101;DHT22;7127;49.372;8.166;2024-01-10T02:59:33;1.00;38.80
14101;DHT22;7127;49.372;8.166;2024-01-10T03:01:59;1.00;38.90
14101;DHT22;7127;49.372;8.166;2024-01-10T03:04:26;1.10;39.00
14101;DHT22;7127;49.372;8.166;2024-01-10T03:06:53;1.10;39.00
14101;DHT22;7127;49.372;8.166;2024-01-10T03:09:20;1.10;39.00
14101;DHT22;7127;49.372;8.166;2024-01-10T03:11:46;1.10;38.90
14101;DHT22;7127;49.372;8.166;2024-01-10T03:14:13;1.10;38.50
14101;DHT22;7127;49.372;8.166;2024-01-10T03:16:41;1.20;38.90
14101;DHT22;7127;49.372;8.166;2024-01-10T03:19:08;1.20;38.60
14101;DHT22;7127;49.372;8.166;2024-01-10T03:21:35;1.20;38.60
14101;DHT22;7127;49.372;8.166;2024-01-10T03:24:02;1.20;38.80
14101;DHT22;7127;49.372;8.166;2024-01-10T03:26:28;1.20;38.60
14101;DHT22;7127;49.372;8.166;2024-01-10T03:28:56;1.20;38.30
14101;DHT22;7127;49.372;8.166;2024-01-10T03:31:23;1.20;38.50
14101;DHT22;7127;49.372;8.166;2024-01-10T03:33:52;1.20;38.70
14101;DHT22;7127;49.372;8.166;2024-01-10T03:36:19;1.20;38.30
14101;DHT22;7127;49.372;8.166;2024-01-10T03:38:45;1.20;38.70
14101;DHT22;7127;49.372;8.166;2024-01-10T03:41:14;1.20;38.80
14101;DHT22;7127;49.372;8.166;2024-01-10T03:43:41;1.20;38.90
14101;DHT22;7127;49.372;8.166;2024-01-10T03:46:07;1.20;38.90
14101;DHT22;7127;49.372;8.166;2024-01-10T03:48:34;1.20;38.90
14101;DHT22;7127;49.372;8.166;2024-01-10T03:51:04;1.20;38.90
14101;DHT22;7127;49.372;8.166;2024-01-10T03:53:30;1.20;38.90
14101;DHT22;7127;49.372;8.166;2024-01-10T03:55:57;1.20;39.00
14101;DHT22;7127;49.372;8.166;2024-01-10T03:58:24;1.20;38.90
14101;DHT22;7127;49.372;8.166;2024-01-10T04:00:52;1.20;38.90
14101;DHT22;7127;49.372;8.166;2024-01-10T04:03:18;1.30;38.50
14101;DHT22;7127;49.372;8.166;2024-01-10T04:05:45;1.20;38.40
14101;DHT22;7127;49.372;8.166;2024-01-10T04:08:13;1.20;38.80
14101;DHT22;7127;49.372;8.166;2024-01-10T04:10:41;1.20;38.70
14101;DHT22;7127;49.372;8.166;2024-01-10T04:13:07;1.20;38.70
14101;DHT22;7127;49.372;8.166;2024-01-10T04:15:34;1.20;38.80
14101;DHT22;7127;49.372;8.166;2024-01-10T04:18:01;1.20;38.80
14101;DHT22;7127;49.372;8.166;2024-01-10T04:20:28;1.20;38.70
14101;DHT22;7127;49.372;8.166;2024-01-10T04:22:55;1.20;38.80
14101;DHT22;7127;49.372;8.166;2024-01-10T04:25:23;1.10;38.80
14101;DHT22;7127;49.372;8.166;2024-01-10T04:27:49;1.20;38.90
14101;DHT22;7127;49.372;8.166;2024-01-10T04:30:16;1.10;38.80
14101;DHT22;7127;49.372;8.166;2024-01-10T04:32:43;1.10;38.90
14101;DHT22;7127;49.372;8.166;2024-01-10T04:35:10;1.10;38.90
14101;DHT22;7127;49.372;8.166;2024-01-10T04:37:37;1.10;38.80
14101;DHT22;7127;49.372;8.166;2024-01-10T04:40:05;1.10;39.00
14101;DHT22;7127;49.372;8.166;2024-01-10T04:42:33;1.10;39.00
14101;DHT22;7127;49.372;8.166;2024-01-10T04:45:00;1.10;38.90
14101;DHT22;7127;49.372;8.166;2024-01-10T04:47:26;1.00;38.90
14101;DHT22;7127;49.372;8.166;2024-01-10T04:49:53;1.00;39.40
14101;DHT22;7127;49.372;8.166;2024-01-10T04:52:20;1.00;39.00
14101;DHT22;7127;49.372;8.166;2024-01-10T04:54:47;1.00;39.10
14101;DHT22;7127;49.372;8.166;2024-01-10T04:57:13;1.00;38.80
14101;DHT22;7127;49.372;8.166;2024-01-10T04:59:42;1.00;39.00
14101;DHT22;7127;49.372;8.166;2024-01-10T05:02:09;1.00;39.10
14101;DHT22;7127;49.372;8.166;2024-01-10T05:04:36;1.00;39.20
14101;DHT22;7127;49.372;8.166;2024-01-10T05:07:03;1.00;39.30
14101;DHT22;7127;49.372;8.166;2024-01-10T05:09:30;1.00;39.30
14101;DHT22;7127;49.372;8.166;2024-01-10T05:11:57;1.00;39.30
14101;DHT22;7127;49.372;8.166;2024-01-10T05:14:23;1.00;39.30
14101;DHT22;7127;49.372;8.166;2024-01-10T05:16:51;1.00;39.30
14101;DHT22;7127;49.372;8.166;2024-01-10T05:19:19;1.00;39.40
14101;DHT22;7127;49.372;8.166;2024-01-10T05:21:46;1.00;39.40
14101;DHT22;7127;49.372;8.166;2024-01-10T05:24:12;1.00;39.30
14101;DHT22;7127;49.372;8.166;2024-01-10T05:26:39;1.00;39.30
14101;DHT22;7127;49.372;8.166;2024-01-10T05:29:06;1.00;39.30
14101;DHT22;7127;49.372;8.166;2024-01-10T05:31:33;1.00;39.40
14101;DHT22;7127;49.372;8.166;2024-01-10T05:34:01;0.90;39.30
14101;DHT22;7127;49.372;8.166;2024-01-10T05:36:28;1.00;39.40
14101;DHT22;7127;49.372;8.166;2024-01-10T05:38:54;0.90;39.30
14101;DHT22;7127;49.372;8.166;2024-01-10T05:41:21;0.90;39.30
14101;DHT22;7127;49.372;8.166;2024-01-10T05:43:48;0.90;39.40
14101;DHT22;7127;49.372;8.166;2024-01-10T05:46:15;0.90;39.50
14101;DHT22;7127;49.372;8.166;2024-01-10T05:48:42;0.90;39.60
14101;DHT22;7127;49.372;8.166;2024-01-10T05:51:10;0.90;39.50
14101;DHT22;7127;49.372;8.166;2024-01-10T05:53:37;0.90;39.60
14101;DHT22;7127;49.372;8.166;2024-01-10T05:56:06;0.90;39.60
14101;DHT22;7127;49.372;8.166;2024-01-10T05:58:32;0.90;39.60
14101;DHT22;7127;49.372;8.166;2024-01-10T06:00:59;0.90;39.70
14101;DHT22;7127;49.372;8.166;2024-01-10T06:03:26;0.90;39.70
14101;DHT22;7127;49.372;8.166;2024-01-10T06:05:53;0.90;39.80
14101;DHT22;7127;49.372;8.166;2024-01-10T06:08:21;0.90;39.90
14101;DHT22;7127;49.372;8.166;2024-01-10T06:10:51;1.00;39.90
14101;DHT22;7127;49.372;8.166;2024-01-10T06:13:18;1.00;39.90
14101;DHT22;7127;49.372;8.166;2024-01-10T06:15:44;1.00;40.00
14101;DHT22;7127;49.372;8.166;2024-01-10T06:18:11;1.00;39.90
14101;DHT22;7127;49.372;8.166;2024-01-10T06:20:38;1.00;39.90
14101;DHT22;7127;49.372;8.166;2024-01-10T06:23:05;1.00;39.90
14101;DHT22;7127;49.372;8.166;2024-01-10T06:25:33;1.10;39.90
14101;DHT22;7127;49.372;8.166;2024-01-10T06:27:59;1.10;39.90
14101;DHT22;7127;49.372;8.166;2024-01-10T06:30:26;1.10;39.90
14101;DHT22;7127;49.372;8.166;2024-01-10T06:32:53;1.10;39.90
14101;DHT22;7127;49.372;8.166;2024-01-10T06:35:20;1.10;39.90
14101;DHT22;7127;49.372;8.166;2024-01-10T06:37:47;1.10;39.80
14101;DHT22;7127;49.372;8.166;2024-01-10T06:40:14;1.10;39.70
14101;DHT22;7127;49.372;8.166;2024-01-10T06:42:43;1.10;39.80
14101;DHT22;7127;49.372;8.166;2024-01-10T06:45:10;1.10;39.70
14101;DHT22;7127;49.372;8.166;2024-01-10T06:47:37;1.10;40.00
14101;DHT22;7127;49.372;8.166;2024-01-10T06:50:05;1.10;39.70
14101;DHT22;7127;49.372;8.166;2024-01-10T06:52:32;1.10;39.80
14101;DHT22;7127;49.372;8.166;2024-01-10T06:54:59;1.10;39.70
14101;DHT22;7127;49.372;8.166;2024-01-10T06:57:25;1.00;39.70
14101;DHT22;7127;49.372;8.166;2024-01-10T06:59:54;1.00;39.70
14101;DHT22;7127;49.372;8.166;2024-01-10T07:02:22;1.00;39.80
14101;DHT22;7127;49.372;8.166;2024-01-10T07:04:49;1.00;39.90
14101;DHT22;7127;49.372;8.166;2024-01-10T07:07:16;1.00;39.90
14101;DHT22;7127;49.372;8.166;2024-01-10T07:09:43;1.00;39.90
14101;DHT22;7127;49.372;8.166;2024-01-10T07:12:10;1.00;39.90
14101;DHT22;7127;49.372;8.166;2024-01-10T07:14:36;1.00;39.90
14101;DHT22;7127;49.372;8.166;2024-01-10T07:17:04;1.00;40.00
14101;DHT22;7127;49.372;8.166;2024-01-10T07:19:31;1.00;40.00
14101;DHT22;7127;49.372;8.166;2024-01-10T07:21:58;0.90;40.00
14101;DHT22;7127;49.372;8.166;2024-01-10T07:24:26;1.00;40.10
14101;DHT22;7127;49.372;8.166;2024-01-10T07:26:53;0.90;40.20
14101;DHT22;7127;49.372;8.166;2024-01-10T07:29:19;1.00;40.20
14101;DHT22;7127;49.372;8.166;2024-01-10T07:31:46;1.00;40.20
14101;DHT22;7127;49.372;8.166;2024-01-10T07:34:14;0.90;40.20
14101;DHT22;7127;49.372;8.166;2024-01-10T07:36:42;1.00;40.30
14101;DHT22;7127;49.372;8.166;2024-01-10T07:39:09;1.00;40.30
14101;DHT22;7127;49.372;8.166;2024-01-10T07:41:35;1.00;40.30
14101;DHT22;7127;49.372;8.166;2024-01-10T07:44:03;1.00;40.30
14101;DHT22;7127;49.372;8.166;2024-01-10T07:46:29;1.00;40.40
14101;DHT22;7127;49.372;8.166;2024-01-10T07:48:56;1.10;40.50
14101;DHT22;7127;49.372;8.166;2024-01-10T07:51:24;1.10;40.50
14101;DHT22;7127;49.372;8.166;2024-01-10T07:53:51;1.10;40.50
14101;DHT22;7127;49.372;8.166;2024-01-10T07:56:18;1.10;40.50
14101;DHT22;7127;49.372;8.166;2024-01-10T07:58:45;1.20;40.60
14101;DHT22;7127;49.372;8.166;2024-01-10T08:01:12;1.20;40.60
14101;DHT22;7127;49.372;8.166;2024-01-10T08:03:39;1.20;40.70
14101;DHT22;7127;49.372;8.166;2024-01-10T08:06:06;1.20;40.70
14101;DHT22;7127;49.372;8.166;2024-01-10T08:08:34;1.30;40.70
14101;DHT22;7127;49.372;8.166;2024-01-10T08:11:02;1.30;40.80
14101;DHT22;7127;49.372;8.166;2024-01-10T08:13:29;1.30;40.80
14101;DHT22;7127;49.372;8.166;2024-01-10T08:15:56;1.40;40.90
14101;DHT22;7127;49.372;8.166;2024-01-10T08:18:23;1.40;40.90
14101;DHT22;7127;49.372;8.166;2024-01-10T08:20:49;1.50;40.90
14101;DHT22;7127;49.372;8.166;2024-01-10T08:23:16;1.50;41.00
14101;DHT22;7127;49.372;8.166;2024-01-10T08:25:44;1.60;41.00
14101;DHT22;7127;49.372;8.166;2024-01-10T08:28:11;1.60;41.00
14101;DHT22;7127;49.372;8.166;2024-01-10T08:30:41;1.70;41.10
14101;DHT22;7127;49.372;8.166;2024-01-10T08:33:08;1.80;41.10
14101;DHT22;7127;49.372;8.166;2024-01-10T08:35:35;1.80;40.80
14101;DHT22;7127;49.372;8.166;2024-01-10T08:38:02;1.90;40.80
14101;DHT22;7127;49.372;8.166;2024-01-10T08:40:32;1.90;40.70
14101;DHT22;7127;49.372;8.166;2024-01-10T08:43:00;1.90;40.60
14101;DHT22;7127;49.372;8.166;2024-01-10T08:45:27;2.00;40.60
14101;DHT22;7127;49.372;8.166;2024-01-10T08:47:54;2.00;40.60
14101;DHT22;7127;49.372;8.166;2024-01-10T08:50:23;2.00;40.40
14101;DHT22;7127;49.372;8.166;2024-01-10T08:52:50;2.00;40.40
14101;DHT22;7127;49.372;8.166;2024-01-10T08:55:16;2.00;40.50
14101;DHT22;7127;49.372;8.166;2024-01-10T08:57:43;2.10;40.50
14101;DHT22;7127;49.372;8.166;2024-01-10T09:00:15;2.10;40.40
14101;DHT22;7127;49.372;8.166;2024-01-10T09:02:42;2.10;40.40
14101;DHT22;7127;49.372;8.166;2024-01-10T09:05:09;2.10;40.50
14101;DHT22;7127;49.372;8.166;2024-01-10T09:07:36;2.10;40.30
14101;DHT22;7127;49.372;8.166;2024-01-10T09:10:03;2.20;40.30
14101;DHT22;7127;49.372;8.166;2024-01-10T09:12:30;2.20;40.40
14101;DHT22;7127;49.372;8.166;2024-01-10T09:14:57;2.20;40.40
14101;DHT22;7127;49.372;8.166;2024-01-10T09:17:25;2.20;40.50
14101;DHT22;7127;49.372;8.166;2024-01-10T09:19:53;2.30;40.60
14101;DHT22;7127;49.372;8.166;2024-01-10T09:22:20;2.20;40.50
14101;DHT22;7127;49.372;8.166;2024-01-10T09:24:47;2.30;40.60
14101;DHT22;7127;49.372;8.166;2024-01-10T09:27:14;2.30;40.60
14101;DHT22;7127;49.372;8.166;2024-01-10T09:29:41;2.40;40.60
14101;DHT22;7127;49.372;8.166;2024-01-10T09:32:08;2.40;40.20
14101;DHT22;7127;49.372;8.166;2024-01-10T09:34:36;2.40;40.40
14101;DHT22;7127;49.372;8.166;2024-01-10T09:37:03;2.50;40.60
14101;DHT22;7127;49.372;8.166;2024-01-10T09:39:30;2.50;40.60
14101;DHT22;7127;49.372;8.166;2024-01-10T09:41:58;2.60;40.70
14101;DHT22;7127;49.372;8.166;2024-01-10T09:44:25;2.60;40.60
14101;DHT22;7127;49.372;8.166;2024-01-10T09:46:53;2.70;40.70
14101;DHT22;7127;49.372;8.166;2024-01-10T09:49:20;2.70;40.60
14101;DHT22;7127;49.372;8.166;2024-01-10T09:51:49;2.80;40.60
14101;DHT22;7127;49.372;8.166;2024-01-10T09:54:17;2.80;40.40
14101;DHT22;7127;49.372;8.166;2024-01-10T09:56:45;2.80;40.00
14101;DHT22;7127;49.372;8.166;2024-01-10T09:59:12;2.80;40.20
14101;DHT22;7127;49.372;8.166;2024-01-10T10:01:39;2.80;39.90
14101;DHT22;7127;49.372;8.166;2024-01-10T10:04:07;2.80;39.80
14101;DHT22;7127;49.372;8.166;2024-01-10T10:06:36;2.80;40.10
14101;DHT22;7127;49.372;8.166;2024-01-10T10:09:04;2.80;40.10
14101;DHT22;7127;49.372;8.166;2024-01-10T10:11:30;2.90;40.30
14101;DHT22;7127;49.372;8.166;2024-01-10T10:14:13;2.90;40.30
14101;DHT22;7127;49.372;8.166;2024-01-10T10:16:40;2.90;40.30
14101;DHT22;7127;49.372;8.166;2024-01-10T10:19:07;2.90;40.30
14101;DHT22;7127;49.372;8.166;2024-01-10T10:21:35;3.00;40.40
14101;DHT22;7127;49.372;8.166;2024-01-10T10:24:03;2.90;40.10
14101;DHT22;7127;49.372;8.166;2024-01-10T10:26:32;3.00;40.40
14101;DHT22;7127;49.372;8.166;2024-01-10T10:29:00;3.00;40.30
14101;DHT22;7127;49.372;8.166;2024-01-10T10:31:27;3.00;40.40
14101;DHT22;7127;49.372;8.166;2024-01-10T10:33:54;3.00;40.20
14101;DHT22;7127;49.372;8.166;2024-01-10T10:36:22;3.00;40.20
14101;DHT22;7127;49.372;8.166;2024-01-10T10:38:49;3.10;40.30
14101;DHT22;7127;49.372;8.166;2024-01-10T10:41:19;3.10;40.20
14101;DHT22;7127;49.372;8.166;2024-01-10T10:43:46;3.10;40.20
14101;DHT22;7127;49.372;8.166;2024-01-10T10:46:13;3.10;40.00
14101;DHT22;7127;49.372;8.166;2024-01-10T10:48:42;3.10;40.20
14101;DHT22;7127;49.372;8.166;2024-01-10T10:51:11;3.10;40.10
14101;DHT22;7127;49.372;8.166;2024-01-10T10:53:39;3.10;40.30
14101;DHT22;7127;49.372;8.166;2024-01-10T10:56:11;3.10;40.30
14101;DHT22;7127;49.372;8.166;2024-01-10T10:58:42;3.20;40.00
14101;DHT22;7127;49.372;8.166;2024-01-10T11:01:11;3.10;39.70
14101;DHT22;7127;49.372;8.166;2024-01-10T11:03:38;3.20;40.10
14101;DHT22;7127;49.372;8.166;2024-01-10T11:06:06;3.20;40.30
14101;DHT22;7127;49.372;8.166;2024-01-10T11:08:36;3.20;40.30
14101;DHT22;7127;49.372;8.166;2024-01-10T11:11:07;3.20;40.10
14101;DHT22;7127;49.372;8.166;2024-01-10T11:13:53;3.60;40.20
14101;DHT22;7127;49.372;8.166;2024-01-10T11:16:49;3.20;40.00
14101;DHT22;7127;49.372;8.166;2024-01-10T11:22:39;3.30;40.20
14101;DHT22;7127;49.372;8.166;2024-01-10T11:25:09;3.30;40.30
14101;DHT22;7127;49.372;8.166;2024-01-10T11:27:36;3.30;40.40
14101;DHT22;7127;49.372;8.166;2024-01-10T11:30:06;3.40;40.30
14101;DHT22;7127;49.372;8.166;2024-01-10T11:32:33;3.40;40.20
14101;DHT22;7127;49.372;8.166;2024-01-10T11:35:05;3.40;40.40
14101;DHT22;7127;49.372;8.166;2024-01-10T11:37:42;3.40;40.30
14101;DHT22;7127;49.372;8.166;2024-01-10T11:40:10;3.50;40.20
14101;DHT22;7127;49.372;8.166;2024-01-10T11:42:41;3.50;40.20
14101;DHT22;7127;49.372;8.166;2024-01-10T11:45:10;3.50;40.20
14101;DHT22;7127;49.372;8.166;2024-01-10T11:47:42;3.50;40.30
14101;DHT22;7127;49.372;8.166;2024-01-10T11:50:19;3.50;40.20
14101;DHT22;7127;49.372;8.166;2024-01-10T11:52:47;3.50;39.90
14101;DHT22;7127;49.372;8.166;2024-01-10T11:55:47;3.50;40.00
14101;DHT22;7127;49.372;8.166;2024-01-10T11:58:14;3.60;40.10
14101;DHT22;7127;49.372;8.166;2024-01-10T12:00:42;3.50;40.20
14101;DHT22;7127;49.372;8.166;2024-01-10T12:03:10;3.60;40.30
14101;DHT22;7127;49.372;8.166;2024-01-10T12:05:37;3.60;40.30
14101;DHT22;7127;49.372;8.166;2024-01-10T12:08:06;3.60;40.20
14101;DHT22;7127;49.372;8.166;2024-01-10T12:10:34;3.70;40.30
14101;DHT22;7127;49.372;8.166;2024-01-10T12:13:02;3.90;40.30
14101;DHT22;7127;49.372;8.166;2024-01-10T12:15:29;3.70;40.20
14101;DHT22;7127;49.372;8.166;2024-01-10T12:17:57;3.70;40.20
14101;DHT22;7127;49.372;8.166;2024-01-10T12:20:25;3.80;40.20
14101;DHT22;7127;49.372;8.166;2024-01-10T12:22:52;3.80;40.20
14101;DHT22;7127;49.372;8.166;2024-01-10T12:25:19;3.80;40.20
14101;DHT22;7127;49.372;8.166;2024-01-10T12:27:46;3.80;40.20
14101;DHT22;7127;49.372;8.166;2024-01-10T12:30:13;3.90;40.30
14101;DHT22;7127;49.372;8.166;2024-01-10T12:32:40;3.80;40.10
14101;DHT22;7127;49.372;8.166;2024-01-10T12:35:08;3.90;40.10
14101;DHT22;7127;49.372;8.166;2024-01-10T12:37:35;3.90;39.90
14101;DHT22;7127;49.372;8.166;2024-01-10T12:40:02;4.00;40.20
14101;DHT22;7127;49.372;8.166;2024-01-10T12:42:30;3.90;40.20
14101;DHT22;7127;49.372;8.166;2024-01-10T12:44:57;4.50;40.40
14101;DHT22;7127;49.372;8.166;2024-01-10T12:47:25;4.50;40.40
14101;DHT22;7127;49.372;8.166;2024-01-10T12:49:51;4.00;40.00
14101;DHT22;7127;49.372;8.166;2024-01-10T12:52:20;4.00;40.00
14101;DHT22;7127;49.372;8.166;2024-01-10T12:54:47;4.00;40.00
14101;DHT22;7127;49.372;8.166;2024-01-10T12:57:14;4.00;40.00
14101;DHT22;7127;49.372;8.166;2024-01-10T12:59:41;4.10;40.00
14101;DHT22;7127;49.372;8.166;2024-01-10T13:02:08;4.10;40.00
14101;DHT22;7127;49.372;8.166;2024-01-10T13:04:35;4.70;40.50
14101;DHT22;7127;49.372;8.166;2024-01-10T13:07:04;4.10;40.10
14101;DHT22;7127;49.372;8.166;2024-01-10T13:09:32;4.20;40.10
14101;DHT22;7127;49.372;8.166;2024-01-10T13:11:58;4.20;39.90
14101;DHT22;7127;49.372;8.166;2024-01-10T13:14:25;4.10;40.30
14101;DHT22;7127;49.372;8.166;2024-01-10T13:16:52;4.20;40.00
14101;DHT22;7127;49.372;8.166;2024-01-10T13:19:19;4.20;40.00
14101;DHT22;7127;49.372;8.166;2024-01-10T13:21:46;4.20;39.90
14101;DHT22;7127;49.372;8.166;2024-01-10T13:24:13;4.20;40.00
14101;DHT22;7127;49.372;8.166;2024-01-10T13:26:41;4.20;40.00
14101;DHT22;7127;49.372;8.166;2024-01-10T13:29:07;4.20;39.90
14101;DHT22;7127;49.372;8.166;2024-01-10T13:31:34;4.20;39.90
14101;DHT22;7127;49.372;8.166;2024-01-10T13:34:02;4.20;39.90
14101;DHT22;7127;49.372;8.166;2024-01-10T13:36:29;4.20;39.90
14101;DHT22;7127;49.372;8.166;2024-01-10T13:38:56;4.20;39.90
14101;DHT22;7127;49.372;8.166;2024-01-10T13:41:23;4.20;39.90
14101;DHT22;7127;49.372;8.166;2024-01-10T13:43:52;4.30;39.90
14101;DHT22;7127;49.372;8.166;2024-01-10T13:46:19;4.30;39.90
14101;DHT22;7127;49.372;8.166;2024-01-10T13:48:45;4.30;39.90
14101;DHT22;7127;49.372;8.166;2024-01-10T13:51:12;4.30;39.90
14101;DHT22;7127;49.372;8.166;2024-01-10T13:53:39;4.30;39.90
14101;DHT22;7127;49.372;8.166;2024-01-10T13:56:06;4.30;39.90
14101;DHT22;7127;49.372;8.166;2024-01-10T13:58:33;4.30;39.90
14101;DHT22;7127;49.372;8.166;2024-01-10T14:01:01;4.30;39.90
14101;DHT22;7127;49.372;8.166;2024-01-10T14:03:28;4.30;39.90
14101;DHT22;7127;49.372;8.166;2024-01-10T14:05:55;4.30;39.90
14101;DHT22;7127;49.372;8.166;2024-01-10T14:08:22;4.30;39.90
14101;DHT22;7127;49.372;8.166;2024-01-10T14:10:49;4.30;39.90
14101;DHT22;7127;49.372;8.166;2024-01-10T14:13:30;4.30;40.00
14101;DHT22;7127;49.372;8.166;2024-01-10T14:15:57;4.30;39.90
14101;DHT22;7127;49.372;8.166;2024-01-10T14:18:25;4.40;39.90
14101;DHT22;7127;49.372;8.166;2024-01-10T14:20:52;4.30;39.90
14101;DHT22;7127;49.372;8.166;2024-01-10T14:23:19;4.30;39.90
14101;DHT22;7127;49.372;8.166;2024-01-10T14:25:46;4.30;39.90
14101;DHT22;7127;49.372;8.166;2024-01-10T14:28:13;4.30;39.80
14101;DHT22;7127;49.372;8.166;2024-01-10T14:30:39;4.30;39.90
14101;DHT22;7127;49.372;8.166;2024-01-10T14:33:06;4.30;39.90
14101;DHT22;7127;49.372;8.166;2024-01-10T14:35:34;4.20;39.30
14101;DHT22;7127;49.372;8.166;2024-01-10T14:38:01;4.20;39.50
14101;DHT22;7127;49.372;8.166;2024-01-10T14:40:28;4.20;39.60
14101;DHT22;7127;49.372;8.166;2024-01-10T14:42:55;4.20;39.80
14101;DHT22;7127;49.372;8.166;2024-01-10T14:45:22;4.20;39.90
14101;DHT22;7127;49.372;8.166;2024-01-10T14:47:49;4.10;39.80
14101;DHT22;7127;49.372;8.166;2024-01-10T14:50:15;4.10;39.90
14101;DHT22;7127;49.372;8.166;2024-01-10T14:52:44;4.20;39.90
14101;DHT22;7127;49.372;8.166;2024-01-10T14:55:10;4.10;39.80
14101;DHT22;7127;49.372;8.166;2024-01-10T14:57:37;4.10;39.70
14101;DHT22;7127;49.372;8.166;2024-01-10T15:00:05;4.10;39.70
14101;DHT22;7127;49.372;8.166;2024-01-10T15:02:33;4.10;39.70
14101;DHT22;7127;49.372;8.166;2024-01-10T15:04:59;4.10;40.20
14101;DHT22;7127;49.372;8.166;2024-01-10T15:07:26;4.00;39.50
14101;DHT22;7127;49.372;8.166;2024-01-10T15:09:55;4.00;39.50
14101;DHT22;7127;49.372;8.166;2024-01-10T15:12:24;4.00;39.60
14101;DHT22;7127;49.372;8.166;2024-01-10T15:14:50;4.00;39.60
14101;DHT22;7127;49.372;8.166;2024-01-10T15:17:17;3.90;39.30
14101;DHT22;7127;49.372;8.166;2024-01-10T15:19:44;3.90;39.40
14101;DHT22;7127;49.372;8.166;2024-01-10T15:22:11;3.90;39.70
14101;DHT22;7127;49.372;8.166;2024-01-10T15:24:38;4.00;39.80
14101;DHT22;7127;49.372;8.166;2024-01-10T15:27:07;3.80;39.60
14101;DHT22;7127;49.372;8.166;2024-01-10T15:29:36;3.80;39.60
14101;DHT22;7127;49.372;8.166;2024-01-10T15:32:04;3.70;39.50
14101;DHT22;7127;49.372;8.166;2024-01-10T15:34:31;3.70;39.70
14101;DHT22;7127;49.372;8.166;2024-01-10T15:36:58;3.70;39.70
14101;DHT22;7127;49.372;8.166;2024-01-10T15:39:25;3.60;39.70
14101;DHT22;7127;49.372;8.166;2024-01-10T15:41:52;3.60;39.80
14101;DHT22;7127;49.372;8.166;2024-01-10T15:44:21;3.60;39.70
14101;DHT22;7127;49.372;8.166;2024-01-10T15:46:49;3.60;39.70
14101;DHT22;7127;49.372;8.166;2024-01-10T15:49:15;3.60;39.90
14101;DHT22;7127;49.372;8.166;2024-01-10T15:51:42;3.50;39.90
14101;DHT22;7127;49.372;8.166;2024-01-10T15:54:09;3.50;39.90
14101;DHT22;7127;49.372;8.166;2024-01-10T15:56:36;3.40;39.90
14101;DHT22;7127;49.372;8.166;2024-01-10T15:59:05;3.40;39.80
14101;DHT22;7127;49.372;8.166;2024-01-10T16:01:34;3.40;40.00
14101;DHT22;7127;49.372;8.166;2024-01-10T16:04:01;3.40;40.00
14101;DHT22;7127;49.372;8.166;2024-01-10T16:06:28;3.40;40.00